Crown College, Minnesota
Current Conditions -  °F | °C
As of 11:53 AM on Thursday 27 Nov 2014 (Local Time) from KFCM Reporting Station
Clear Clear  
Wind Chill:   Ceiling: Unl
Heat Index:   Visibility: 10mi
Dew Point: -3°   Wind: 0mph
Humidity: 64%   Direction: NA
Pressure: 30.48"   Gusts: NA
Location:  44.9069°N, 93.7466°W
Report Text: KFCM 271753Z 00000KT 10SM CLR M14/M19 A3048 RMK AO2 SLP344 T11391194 11133 21194 58009
Loading
Personal Weather Stations






























Interactive Weather Map New forecast layout! Learn more

10-Day Weather Forecast

Advertisements
Track Severe Weather on mobile